sensor_id;sensor_type;location;lat;lon;timestamp;P1;durP1;ratioP1;P2;durP2;ratioP2
8411;SDS011;4243;49.296;11.348;2023-02-18T00:01:40;115.70;;;2.60;;
8411;SDS011;4243;49.296;11.348;2023-02-18T00:04:08;115.57;;;2.60;;
8411;SDS011;4243;49.296;11.348;2023-02-18T00:06:35;115.40;;;2.70;;
8411;SDS011;4243;49.296;11.348;2023-02-18T00:09:04;115.57;;;2.50;;
8411;SDS011;4243;49.296;11.348;2023-02-18T00:11:33;116.47;;;2.70;;
8411;SDS011;4243;49.296;11.348;2023-02-18T00:14:04;115.57;;;2.70;;
8411;SDS011;4243;49.296;11.348;2023-02-18T00:16:38;115.67;;;2.70;;
8411;SDS011;4243;49.296;11.348;2023-02-18T00:19:09;116.13;;;2.70;;
8411;SDS011;4243;49.296;11.348;2023-02-18T00:21:43;115.97;;;2.83;;
8411;SDS011;4243;49.296;11.348;2023-02-18T00:24:12;115.53;;;2.60;;
8411;SDS011;4243;49.296;11.348;2023-02-18T00:26:41;116.47;;;2.67;;
8411;SDS011;4243;49.296;11.348;2023-02-18T00:29:09;116.03;;;2.80;;
8411;SDS011;4243;49.296;11.348;2023-02-18T00:31:37;115.97;;;2.87;;
8411;SDS011;4243;49.296;11.348;2023-02-18T00:34:06;116.60;;;2.87;;
8411;SDS011;4243;49.296;11.348;2023-02-18T00:36:33;115.97;;;3.00;;
8411;SDS011;4243;49.296;11.348;2023-02-18T00:39:02;116.20;;;2.87;;
8411;SDS011;4243;49.296;11.348;2023-02-18T00:41:34;114.87;;;2.90;;
8411;SDS011;4243;49.296;11.348;2023-02-18T00:44:02;116.20;;;2.80;;
8411;SDS011;4243;49.296;11.348;2023-02-18T00:46:32;115.37;;;2.90;;
8411;SDS011;4243;49.296;11.348;2023-02-18T00:49:00;116.47;;;2.80;;
8411;SDS011;4243;49.296;11.348;2023-02-18T00:51:27;115.73;;;2.97;;
8411;SDS011;4243;49.296;11.348;2023-02-18T00:53:54;116.10;;;3.00;;
8411;SDS011;4243;49.296;11.348;2023-02-18T00:56:22;116.40;;;2.90;;
8411;SDS011;4243;49.296;11.348;2023-02-18T00:58:49;116.10;;;3.00;;
8411;SDS011;4243;49.296;11.348;2023-02-18T01:01:17;116.27;;;2.80;;
8411;SDS011;4243;49.296;11.348;2023-02-18T01:03:45;115.17;;;2.93;;
8411;SDS011;4243;49.296;11.348;2023-02-18T01:06:13;116.47;;;2.80;;
8411;SDS011;4243;49.296;11.348;2023-02-18T01:08:40;115.50;;;2.77;;
8411;SDS011;4243;49.296;11.348;2023-02-18T01:11:09;114.57;;;2.70;;
8411;SDS011;4243;49.296;11.348;2023-02-18T01:13:39;115.37;;;2.60;;
8411;SDS011;4243;49.296;11.348;2023-02-18T01:16:07;115.20;;;2.80;;
8411;SDS011;4243;49.296;11.348;2023-02-18T01:18:36;115.23;;;2.60;;
8411;SDS011;4243;49.296;11.348;2023-02-18T01:21:05;116.40;;;2.70;;
8411;SDS011;4243;49.296;11.348;2023-02-18T01:23:38;115.67;;;2.70;;
8411;SDS011;4243;49.296;11.348;2023-02-18T01:26:07;116.30;;;2.70;;
8411;SDS011;4243;49.296;11.348;2023-02-18T01:28:37;115.50;;;2.90;;
8411;SDS011;4243;49.296;11.348;2023-02-18T01:31:06;115.77;;;2.70;;
8411;SDS011;4243;49.296;11.348;2023-02-18T01:33:38;115.40;;;2.63;;
8411;SDS011;4243;49.296;11.348;2023-02-18T01:36:06;115.57;;;2.60;;
8411;SDS011;4243;49.296;11.348;2023-02-18T01:38:36;115.97;;;2.70;;
8411;SDS011;4243;49.296;11.348;2023-02-18T01:41:04;116.10;;;2.60;;
8411;SDS011;4243;49.296;11.348;2023-02-18T01:43:32;115.80;;;2.70;;
8411;SDS011;4243;49.296;11.348;2023-02-18T01:48:45;115.90;;;2.80;;
8411;SDS011;4243;49.296;11.348;2023-02-18T01:51:35;116.17;;;2.63;;
8411;SDS011;4243;49.296;11.348;2023-02-18T01:54:22;116.17;;;2.70;;
8411;SDS011;4243;49.296;11.348;2023-02-18T01:57:02;114.17;;;2.63;;
8411;SDS011;4243;49.296;11.348;2023-02-18T01:59:41;114.13;;;2.60;;
8411;SDS011;4243;49.296;11.348;2023-02-18T02:02:21;114.60;;;2.70;;
8411;SDS011;4243;49.296;11.348;2023-02-18T02:04:53;115.30;;;2.63;;
8411;SDS011;4243;49.296;11.348;2023-02-18T02:07:21;115.23;;;2.73;;
8411;SDS011;4243;49.296;11.348;2023-02-18T02:09:53;114.80;;;2.60;;
8411;SDS011;4243;49.296;11.348;2023-02-18T02:12:35;115.67;;;2.63;;
8411;SDS011;4243;49.296;11.348;2023-02-18T02:15:57;115.47;;;2.63;;
8411;SDS011;4243;49.296;11.348;2023-02-18T02:18:40;115.77;;;2.70;;
8411;SDS011;4243;49.296;11.348;2023-02-18T02:28:10;113.37;;;2.63;;
8411;SDS011;4243;49.296;11.348;2023-02-18T02:31:46;115.77;;;2.70;;
8411;SDS011;4243;49.296;11.348;2023-02-18T02:35:20;114.77;;;2.60;;
8411;SDS011;4243;49.296;11.348;2023-02-18T02:38:02;114.73;;;2.63;;
8411;SDS011;4243;49.296;11.348;2023-02-18T02:40:45;115.47;;;2.63;;
8411;SDS011;4243;49.296;11.348;2023-02-18T02:43:40;114.70;;;2.57;;
8411;SDS011;4243;49.296;11.348;2023-02-18T02:49:05;115.27;;;2.60;;
8411;SDS011;4243;49.296;11.348;2023-02-18T02:52:56;115.30;;;2.77;;
8411;SDS011;4243;49.296;11.348;2023-02-18T02:54:59;114.70;;;2.60;;
8411;SDS011;4243;49.296;11.348;2023-02-18T02:57:41;114.10;;;2.67;;
8411;SDS011;4243;49.296;11.348;2023-02-18T03:00:49;115.10;;;2.70;;
8411;SDS011;4243;49.296;11.348;2023-02-18T03:03:48;115.03;;;2.70;;
8411;SDS011;4243;49.296;11.348;2023-02-18T03:06:56;114.50;;;2.80;;
8411;SDS011;4243;49.296;11.348;2023-02-18T03:16:38;114.20;;;2.70;;
8411;SDS011;4243;49.296;11.348;2023-02-18T03:19:30;114.77;;;2.70;;
8411;SDS011;4243;49.296;11.348;2023-02-18T03:22:39;115.27;;;2.77;;
8411;SDS011;4243;49.296;11.348;2023-02-18T03:25:05;115.20;;;2.80;;
8411;SDS011;4243;49.296;11.348;2023-02-18T03:27:54;115.37;;;2.80;;
8411;SDS011;4243;49.296;11.348;2023-02-18T03:30:35;114.97;;;2.80;;
8411;SDS011;4243;49.296;11.348;2023-02-18T03:33:18;115.30;;;2.70;;
8411;SDS011;4243;49.296;11.348;2023-02-18T03:35:53;114.77;;;2.73;;
8411;SDS011;4243;49.296;11.348;2023-02-18T03:38:39;114.60;;;2.80;;
8411;SDS011;4243;49.296;11.348;2023-02-18T03:41:26;115.13;;;2.77;;
8411;SDS011;4243;49.296;11.348;2023-02-18T03:44:03;115.17;;;2.90;;
8411;SDS011;4243;49.296;11.348;2023-02-18T03:46:34;114.83;;;2.73;;
8411;SDS011;4243;49.296;11.348;2023-02-18T03:49:05;114.73;;;2.90;;
8411;SDS011;4243;49.296;11.348;2023-02-18T03:51:33;115.20;;;2.90;;
8411;SDS011;4243;49.296;11.348;2023-02-18T03:54:01;115.10;;;2.93;;
8411;SDS011;4243;49.296;11.348;2023-02-18T03:56:29;115.53;;;2.90;;
8411;SDS011;4243;49.296;11.348;2023-02-18T03:58:56;114.73;;;2.93;;
8411;SDS011;4243;49.296;11.348;2023-02-18T04:01:23;115.57;;;3.00;;
8411;SDS011;4243;49.296;11.348;2023-02-18T04:03:50;115.00;;;2.90;;
8411;SDS011;4243;49.296;11.348;2023-02-18T04:06:20;114.87;;;3.07;;
8411;SDS011;4243;49.296;11.348;2023-02-18T04:08:49;115.50;;;2.87;;
8411;SDS011;4243;49.296;11.348;2023-02-18T04:11:16;115.10;;;3.20;;
8411;SDS011;4243;49.296;11.348;2023-02-18T04:13:44;114.70;;;2.87;;
8411;SDS011;4243;49.296;11.348;2023-02-18T04:16:11;115.40;;;3.07;;
8411;SDS011;4243;49.296;11.348;2023-02-18T04:18:39;115.50;;;2.77;;
8411;SDS011;4243;49.296;11.348;2023-02-18T04:21:06;115.43;;;3.30;;
8411;SDS011;4243;49.296;11.348;2023-02-18T04:23:33;114.70;;;2.90;;
8411;SDS011;4243;49.296;11.348;2023-02-18T04:26:00;114.77;;;2.90;;
8411;SDS011;4243;49.296;11.348;2023-02-18T04:28:28;115.07;;;2.93;;
8411;SDS011;4243;49.296;11.348;2023-02-18T04:30:55;115.13;;;2.80;;
8411;SDS011;4243;49.296;11.348;2023-02-18T04:33:22;113.47;;;3.00;;
8411;SDS011;4243;49.296;11.348;2023-02-18T04:35:49;113.67;;;2.90;;
8411;SDS011;4243;49.296;11.348;2023-02-18T04:38:16;113.57;;;2.87;;
8411;SDS011;4243;49.296;11.348;2023-02-18T04:40:43;114.20;;;2.73;;
8411;SDS011;4243;49.296;11.348;2023-02-18T04:43:11;114.87;;;2.87;;
8411;SDS011;4243;49.296;11.348;2023-02-18T04:45:38;114.00;;;2.80;;
8411;SDS011;4243;49.296;11.348;2023-02-18T04:48:05;114.40;;;2.70;;
8411;SDS011;4243;49.296;11.348;2023-02-18T04:50:33;114.93;;;2.80;;
8411;SDS011;4243;49.296;11.348;2023-02-18T04:53:00;114.87;;;2.90;;
8411;SDS011;4243;49.296;11.348;2023-02-18T04:55:27;115.30;;;2.90;;
8411;SDS011;4243;49.296;11.348;2023-02-18T04:57:54;115.17;;;2.90;;
8411;SDS011;4243;49.296;11.348;2023-02-18T05:00:22;114.87;;;2.80;;
8411;SDS011;4243;49.296;11.348;2023-02-18T05:02:50;114.70;;;2.70;;
8411;SDS011;4243;49.296;11.348;2023-02-18T05:05:17;114.70;;;2.97;;
8411;SDS011;4243;49.296;11.348;2023-02-18T05:07:44;114.97;;;2.70;;
8411;SDS011;4243;49.296;11.348;2023-02-18T05:10:13;115.40;;;2.80;;
8411;SDS011;4243;49.296;11.348;2023-02-18T05:12:43;115.53;;;2.80;;
8411;SDS011;4243;49.296;11.348;2023-02-18T05:15:10;113.77;;;2.80;;
8411;SDS011;4243;49.296;11.348;2023-02-18T05:17:37;112.93;;;2.77;;
8411;SDS011;4243;49.296;11.348;2023-02-18T05:20:05;115.20;;;2.80;;
8411;SDS011;4243;49.296;11.348;2023-02-18T05:22:35;113.90;;;2.90;;
8411;SDS011;4243;49.296;11.348;2023-02-18T05:25:03;114.70;;;2.80;;
8411;SDS011;4243;49.296;11.348;2023-02-18T05:27:31;114.90;;;2.80;;
8411;SDS011;4243;49.296;11.348;2023-02-18T05:29:58;114.97;;;2.70;;
8411;SDS011;4243;49.296;11.348;2023-02-18T05:32:25;114.77;;;2.77;;
8411;SDS011;4243;49.296;11.348;2023-02-18T05:34:52;113.90;;;2.80;;
8411;SDS011;4243;49.296;11.348;2023-02-18T05:37:19;115.37;;;2.70;;
8411;SDS011;4243;49.296;11.348;2023-02-18T05:39:46;114.30;;;2.70;;
8411;SDS011;4243;49.296;11.348;2023-02-18T05:42:13;114.03;;;2.80;;
8411;SDS011;4243;49.296;11.348;2023-02-18T05:44:40;114.67;;;2.70;;
8411;SDS011;4243;49.296;11.348;2023-02-18T05:47:08;114.47;;;2.70;;
8411;SDS011;4243;49.296;11.348;2023-02-18T05:49:38;115.00;;;2.80;;
8411;SDS011;4243;49.296;11.348;2023-02-18T05:52:08;113.90;;;2.63;;
8411;SDS011;4243;49.296;11.348;2023-02-18T05:54:36;114.57;;;2.67;;
8411;SDS011;4243;49.296;11.348;2023-02-18T05:57:04;114.77;;;2.67;;
8411;SDS011;4243;49.296;11.348;2023-02-18T05:59:31;115.07;;;2.83;;
8411;SDS011;4243;49.296;11.348;2023-02-18T06:01:59;114.60;;;2.67;;
8411;SDS011;4243;49.296;11.348;2023-02-18T06:04:26;114.57;;;2.70;;
8411;SDS011;4243;49.296;11.348;2023-02-18T06:06:53;114.83;;;2.70;;
8411;SDS011;4243;49.296;11.348;2023-02-18T06:09:21;115.00;;;2.80;;
8411;SDS011;4243;49.296;11.348;2023-02-18T06:11:48;115.00;;;2.80;;
8411;SDS011;4243;49.296;11.348;2023-02-18T06:14:15;114.53;;;2.80;;
8411;SDS011;4243;49.296;11.348;2023-02-18T06:16:42;114.73;;;2.67;;
8411;SDS011;4243;49.296;11.348;2023-02-18T06:19:09;114.83;;;2.73;;
8411;SDS011;4243;49.296;11.348;2023-02-18T06:21:37;114.97;;;2.70;;
8411;SDS011;4243;49.296;11.348;2023-02-18T06:24:04;114.67;;;2.70;;
8411;SDS011;4243;49.296;11.348;2023-02-18T06:26:32;115.37;;;2.67;;
8411;SDS011;4243;49.296;11.348;2023-02-18T06:28:59;114.57;;;2.60;;
8411;SDS011;4243;49.296;11.348;2023-02-18T06:31:27;113.17;;;2.77;;
8411;SDS011;4243;49.296;11.348;2023-02-18T06:33:54;114.00;;;2.73;;
8411;SDS011;4243;49.296;11.348;2023-02-18T06:36:22;114.80;;;2.63;;
8411;SDS011;4243;49.296;11.348;2023-02-18T06:38:49;114.87;;;2.70;;
8411;SDS011;4243;49.296;11.348;2023-02-18T06:41:17;114.83;;;2.60;;
8411;SDS011;4243;49.296;11.348;2023-02-18T06:43:44;114.20;;;2.70;;
8411;SDS011;4243;49.296;11.348;2023-02-18T06:46:12;114.57;;;2.70;;
8411;SDS011;4243;49.296;11.348;2023-02-18T06:48:39;113.87;;;2.70;;
8411;SDS011;4243;49.296;11.348;2023-02-18T06:51:06;114.83;;;2.67;;
8411;SDS011;4243;49.296;11.348;2023-02-18T06:53:33;115.00;;;2.70;;
8411;SDS011;4243;49.296;11.348;2023-02-18T06:56:00;114.37;;;2.63;;
8411;SDS011;4243;49.296;11.348;2023-02-18T06:58:28;114.27;;;2.83;;
8411;SDS011;4243;49.296;11.348;2023-02-18T07:00:55;115.07;;;2.67;;
8411;SDS011;4243;49.296;11.348;2023-02-18T07:03:22;114.77;;;2.67;;
8411;SDS011;4243;49.296;11.348;2023-02-18T07:05:50;114.70;;;2.60;;
8411;SDS011;4243;49.296;11.348;2023-02-18T07:08:17;114.77;;;2.70;;
8411;SDS011;4243;49.296;11.348;2023-02-18T07:10:44;115.07;;;2.80;;
8411;SDS011;4243;49.296;11.348;2023-02-18T07:13:12;114.80;;;2.70;;
8411;SDS011;4243;49.296;11.348;2023-02-18T07:15:39;114.67;;;2.60;;
8411;SDS011;4243;49.296;11.348;2023-02-18T07:18:07;114.37;;;2.60;;
8411;SDS011;4243;49.296;11.348;2023-02-18T07:20:34;114.47;;;2.60;;
8411;SDS011;4243;49.296;11.348;2023-02-18T07:23:01;114.50;;;2.70;;
8411;SDS011;4243;49.296;11.348;2023-02-18T07:25:29;113.80;;;2.70;;
8411;SDS011;4243;49.296;11.348;2023-02-18T07:27:56;115.07;;;2.67;;
8411;SDS011;4243;49.296;11.348;2023-02-18T07:30:23;114.47;;;2.67;;
8411;SDS011;4243;49.296;11.348;2023-02-18T07:32:50;114.77;;;2.83;;
8411;SDS011;4243;49.296;11.348;2023-02-18T07:35:18;115.20;;;2.63;;
8411;SDS011;4243;49.296;11.348;2023-02-18T07:37:46;114.47;;;2.80;;
8411;SDS011;4243;49.296;11.348;2023-02-18T07:40:16;115.13;;;2.60;;
8411;SDS011;4243;49.296;11.348;2023-02-18T07:42:47;114.73;;;2.63;;
8411;SDS011;4243;49.296;11.348;2023-02-18T07:45:14;114.37;;;2.63;;
8411;SDS011;4243;49.296;11.348;2023-02-18T07:47:42;114.47;;;2.67;;
8411;SDS011;4243;49.296;11.348;2023-02-18T07:50:10;114.77;;;2.60;;
8411;SDS011;4243;49.296;11.348;2023-02-18T07:52:38;114.43;;;2.73;;
8411;SDS011;4243;49.296;11.348;2023-02-18T07:55:05;114.27;;;2.63;;
8411;SDS011;4243;49.296;11.348;2023-02-18T07:57:33;114.37;;;2.60;;
8411;SDS011;4243;49.296;11.348;2023-02-18T08:00:20;115.40;;;2.87;;
8411;SDS011;4243;49.296;11.348;2023-02-18T08:02:47;115.27;;;2.80;;
8411;SDS011;4243;49.296;11.348;2023-02-18T08:05:15;115.00;;;2.70;;
8411;SDS011;4243;49.296;11.348;2023-02-18T08:07:42;113.90;;;2.83;;
8411;SDS011;4243;49.296;11.348;2023-02-18T08:10:10;114.87;;;2.70;;
8411;SDS011;4243;49.296;11.348;2023-02-18T08:12:37;114.83;;;2.70;;
8411;SDS011;4243;49.296;11.348;2023-02-18T08:15:04;114.60;;;2.87;;
8411;SDS011;4243;49.296;11.348;2023-02-18T08:17:32;114.03;;;2.80;;
8411;SDS011;4243;49.296;11.348;2023-02-18T08:19:59;115.30;;;3.07;;
8411;SDS011;4243;49.296;11.348;2023-02-18T08:22:26;114.80;;;2.87;;
8411;SDS011;4243;49.296;11.348;2023-02-18T08:24:54;115.10;;;2.90;;
8411;SDS011;4243;49.296;11.348;2023-02-18T08:27:21;115.00;;;2.80;;
8411;SDS011;4243;49.296;11.348;2023-02-18T08:29:49;115.70;;;2.67;;
8411;SDS011;4243;49.296;11.348;2023-02-18T08:32:17;112.47;;;2.60;;
8411;SDS011;4243;49.296;11.348;2023-02-18T08:34:44;114.47;;;2.70;;
8411;SDS011;4243;49.296;11.348;2023-02-18T08:37:11;114.67;;;2.60;;
8411;SDS011;4243;49.296;11.348;2023-02-18T08:39:39;112.77;;;2.70;;
8411;SDS011;4243;49.296;11.348;2023-02-18T08:42:06;115.17;;;2.53;;
8411;SDS011;4243;49.296;11.348;2023-02-18T08:44:33;114.00;;;2.63;;
8411;SDS011;4243;49.296;11.348;2023-02-18T08:47:00;115.17;;;2.63;;
8411;SDS011;4243;49.296;11.348;2023-02-18T08:49:27;113.90;;;2.60;;
8411;SDS011;4243;49.296;11.348;2023-02-18T08:51:55;114.30;;;2.60;;
8411;SDS011;4243;49.296;11.348;2023-02-18T08:54:23;115.07;;;2.60;;
8411;SDS011;4243;49.296;11.348;2023-02-18T08:56:52;114.50;;;2.60;;
8411;SDS011;4243;49.296;11.348;2023-02-18T08:59:23;115.50;;;2.63;;
8411;SDS011;4243;49.296;11.348;2023-02-18T09:03:50;115.20;;;2.60;;
8411;SDS011;4243;49.296;11.348;2023-02-18T09:06:17;115.20;;;2.80;;
8411;SDS011;4243;49.296;11.348;2023-02-18T09:08:45;115.40;;;3.30;;
8411;SDS011;4243;49.296;11.348;2023-02-18T09:11:12;114.67;;;3.33;;
8411;SDS011;4243;49.296;11.348;2023-02-18T09:13:40;115.27;;;2.97;;
8411;SDS011;4243;49.296;11.348;2023-02-18T09:16:09;115.30;;;3.20;;
8411;SDS011;4243;49.296;11.348;2023-02-18T09:18:40;115.60;;;3.20;;
8411;SDS011;4243;49.296;11.348;2023-02-18T09:21:07;115.63;;;2.93;;
8411;SDS011;4243;49.296;11.348;2023-02-18T09:23:38;115.67;;;2.93;;
8411;SDS011;4243;49.296;11.348;2023-02-18T09:26:06;116.20;;;2.90;;
8411;SDS011;4243;49.296;11.348;2023-02-18T09:28:42;114.90;;;3.67;;
8411;SDS011;4243;49.296;11.348;2023-02-18T09:31:10;115.30;;;2.80;;
8411;SDS011;4243;49.296;11.348;2023-02-18T09:33:43;114.93;;;2.70;;
8411;SDS011;4243;49.296;11.348;2023-02-18T09:36:16;115.30;;;2.63;;
8411;SDS011;4243;49.296;11.348;2023-02-18T09:38:44;114.90;;;2.50;;
8411;SDS011;4243;49.296;11.348;2023-02-18T09:41:32;115.97;;;2.50;;
8411;SDS011;4243;49.296;11.348;2023-02-18T09:49:39;116.07;;;2.40;;
8411;SDS011;4243;49.296;11.348;2023-02-18T09:52:16;115.20;;;2.30;;
8411;SDS011;4243;49.296;11.348;2023-02-18T09:54:54;114.80;;;2.40;;
8411;SDS011;4243;49.296;11.348;2023-02-18T09:57:26;115.77;;;2.30;;
8411;SDS011;4243;49.296;11.348;2023-02-18T10:00:24;115.67;;;2.50;;
8411;SDS011;4243;49.296;11.348;2023-02-18T10:03:14;112.87;;;2.30;;
8411;SDS011;4243;49.296;11.348;2023-02-18T10:06:33;115.20;;;2.30;;
8411;SDS011;4243;49.296;11.348;2023-02-18T10:08:58;114.83;;;2.50;;
8411;SDS011;4243;49.296;11.348;2023-02-18T10:11:54;115.77;;;2.50;;
8411;SDS011;4243;49.296;11.348;2023-02-18T10:14:41;114.33;;;2.33;;
8411;SDS011;4243;49.296;11.348;2023-02-18T10:17:15;115.13;;;2.40;;
8411;SDS011;4243;49.296;11.348;2023-02-18T10:19:45;115.33;;;2.47;;
8411;SDS011;4243;49.296;11.348;2023-02-18T10:22:15;113.43;;;2.47;;
8411;SDS011;4243;49.296;11.348;2023-02-18T10:27:29;115.70;;;2.60;;
8411;SDS011;4243;49.296;11.348;2023-02-18T10:30:08;114.90;;;2.50;;
8411;SDS011;4243;49.296;11.348;2023-02-18T10:32:54;115.70;;;2.60;;
8411;SDS011;4243;49.296;11.348;2023-02-18T10:35:47;115.83;;;2.57;;
8411;SDS011;4243;49.296;11.348;2023-02-18T10:38:31;116.03;;;2.70;;
8411;SDS011;4243;49.296;11.348;2023-02-18T10:52:40;114.57;;;2.50;;
8411;SDS011;4243;49.296;11.348;2023-02-18T10:55:13;116.57;;;2.60;;
8411;SDS011;4243;49.296;11.348;2023-02-18T10:57:44;115.83;;;2.67;;
8411;SDS011;4243;49.296;11.348;2023-02-18T11:00:21;115.63;;;2.50;;
8411;SDS011;4243;49.296;11.348;2023-02-18T11:05:49;116.47;;;2.60;;
8411;SDS011;4243;49.296;11.348;2023-02-18T11:08:26;116.20;;;2.50;;
8411;SDS011;4243;49.296;11.348;2023-02-18T11:11:08;114.60;;;2.50;;
8411;SDS011;4243;49.296;11.348;2023-02-18T11:14:05;116.20;;;2.57;;
8411;SDS011;4243;49.296;11.348;2023-02-18T11:19:34;116.67;;;2.37;;
8411;SDS011;4243;49.296;11.348;2023-02-18T11:22:13;116.70;;;2.60;;
8411;SDS011;4243;49.296;11.348;2023-02-18T11:24:54;116.67;;;2.50;;
8411;SDS011;4243;49.296;11.348;2023-02-18T11:27:40;117.30;;;2.60;;
8411;SDS011;4243;49.296;11.348;2023-02-18T11:30:16;116.43;;;2.70;;
8411;SDS011;4243;49.296;11.348;2023-02-18T11:32:56;117.07;;;2.50;;
8411;SDS011;4243;49.296;11.348;2023-02-18T11:35:32;116.90;;;2.67;;
8411;SDS011;4243;49.296;11.348;2023-02-18T11:38:01;117.37;;;2.90;;
8411;SDS011;4243;49.296;11.348;2023-02-18T11:40:52;116.20;;;2.63;;
8411;SDS011;4243;49.296;11.348;2023-02-18T11:43:31;116.93;;;2.70;;
8411;SDS011;4243;49.296;11.348;2023-02-18T11:46:14;117.27;;;2.73;;
8411;SDS011;4243;49.296;11.348;2023-02-18T11:48:50;117.17;;;2.60;;
8411;SDS011;4243;49.296;11.348;2023-02-18T11:53:55;116.60;;;2.50;;
8411;SDS011;4243;49.296;11.348;2023-02-18T11:56:32;117.07;;;2.50;;
8411;SDS011;4243;49.296;11.348;2023-02-18T11:59:01;117.07;;;2.63;;
8411;SDS011;4243;49.296;11.348;2023-02-18T12:01:46;116.77;;;2.53;;
8411;SDS011;4243;49.296;11.348;2023-02-18T12:04:30;116.73;;;2.50;;
8411;SDS011;4243;49.296;11.348;2023-02-18T12:07:22;117.37;;;2.47;;
8411;SDS011;4243;49.296;11.348;2023-02-18T12:10:13;117.30;;;2.50;;
8411;SDS011;4243;49.296;11.348;2023-02-18T12:13:25;116.57;;;2.47;;
8411;SDS011;4243;49.296;11.348;2023-02-18T12:16:12;116.80;;;2.50;;
8411;SDS011;4243;49.296;11.348;2023-02-18T12:22:12;116.97;;;2.50;;
8411;SDS011;4243;49.296;11.348;2023-02-18T12:25:21;116.87;;;2.60;;
8411;SDS011;4243;49.296;11.348;2023-02-18T12:28:11;116.30;;;2.50;;
8411;SDS011;4243;49.296;11.348;2023-02-18T12:38:34;116.50;;;2.70;;
8411;SDS011;4243;49.296;11.348;2023-02-18T12:41:44;116.60;;;2.70;;
8411;SDS011;4243;49.296;11.348;2023-02-18T12:54:03;116.40;;;2.63;;
8411;SDS011;4243;49.296;11.348;2023-02-18T12:56:58;116.43;;;2.77;;
8411;SDS011;4243;49.296;11.348;2023-02-18T13:00:03;116.57;;;2.80;;
8411;SDS011;4243;49.296;11.348;2023-02-18T13:10:01;116.57;;;2.90;;
8411;SDS011;4243;49.296;11.348;2023-02-18T13:13:52;116.30;;;2.80;;
8411;SDS011;4243;49.296;11.348;2023-02-18T13:16:16;116.00;;;2.53;;
8411;SDS011;4243;49.296;11.348;2023-02-18T13:19:36;116.57;;;2.50;;
8411;SDS011;4243;49.296;11.348;2023-02-18T13:21:58;116.53;;;2.60;;
8411;SDS011;4243;49.296;11.348;2023-02-18T13:24:35;116.50;;;2.47;;
8411;SDS011;4243;49.296;11.348;2023-02-18T13:27:13;116.00;;;2.37;;
8411;SDS011;4243;49.296;11.348;2023-02-18T13:30:18;116.40;;;2.40;;
8411;SDS011;4243;49.296;11.348;2023-02-18T13:33:19;115.60;;;2.30;;
8411;SDS011;4243;49.296;11.348;2023-02-18T13:41:39;116.57;;;2.70;;
8411;SDS011;4243;49.296;11.348;2023-02-18T13:44:08;116.03;;;2.50;;
8411;SDS011;4243;49.296;11.348;2023-02-18T13:46:48;116.27;;;2.67;;
8411;SDS011;4243;49.296;11.348;2023-02-18T13:49:23;116.37;;;2.67;;
8411;SDS011;4243;49.296;11.348;2023-02-18T13:52:03;116.37;;;2.70;;
8411;SDS011;4243;49.296;11.348;2023-02-18T13:54:50;116.27;;;2.70;;
8411;SDS011;4243;49.296;11.348;2023-02-18T13:57:21;116.47;;;2.80;;
8411;SDS011;4243;49.296;11.348;2023-02-18T13:59:57;115.70;;;2.67;;
8411;SDS011;4243;49.296;11.348;2023-02-18T14:02:32;116.80;;;2.77;;
8411;SDS011;4243;49.296;11.348;2023-02-18T14:07:51;115.50;;;2.70;;
8411;SDS011;4243;49.296;11.348;2023-02-18T14:10:34;116.20;;;2.60;;
8411;SDS011;4243;49.296;11.348;2023-02-18T14:13:20;116.17;;;2.67;;
8411;SDS011;4243;49.296;11.348;2023-02-18T14:16:04;116.27;;;2.60;;
8411;SDS011;4243;49.296;11.348;2023-02-18T14:18:33;115.97;;;2.80;;
8411;SDS011;4243;49.296;11.348;2023-02-18T14:21:36;117.10;;;3.10;;
8411;SDS011;4243;49.296;11.348;2023-02-18T14:24:08;116.50;;;3.47;;
8411;SDS011;4243;49.296;11.348;2023-02-18T14:26:39;115.50;;;2.80;;
8411;SDS011;4243;49.296;11.348;2023-02-18T14:29:14;116.27;;;2.70;;
8411;SDS011;4243;49.296;11.348;2023-02-18T14:32:02;116.67;;;2.80;;
8411;SDS011;4243;49.296;11.348;2023-02-18T14:34:40;114.70;;;2.70;;
8411;SDS011;4243;49.296;11.348;2023-02-18T14:47:17;115.87;;;3.10;;
8411;SDS011;4243;49.296;11.348;2023-02-18T14:50:32;116.67;;;2.73;;
8411;SDS011;4243;49.296;11.348;2023-02-18T14:53:05;115.83;;;2.60;;
8411;SDS011;4243;49.296;11.348;2023-02-18T14:55:50;116.77;;;2.80;;
8411;SDS011;4243;49.296;11.348;2023-02-18T14:58:30;116.73;;;2.80;;
8411;SDS011;4243;49.296;11.348;2023-02-18T15:01:21;116.53;;;2.77;;
8411;SDS011;4243;49.296;11.348;2023-02-18T15:03:59;116.10;;;2.73;;
8411;SDS011;4243;49.296;11.348;2023-02-18T15:06:35;116.90;;;2.67;;
8411;SDS011;4243;49.296;11.348;2023-02-18T15:09:12;114.97;;;2.60;;
8411;SDS011;4243;49.296;11.348;2023-02-18T15:11:44;116.40;;;2.70;;
8411;SDS011;4243;49.296;11.348;2023-02-18T15:14:30;115.57;;;2.63;;
8411;SDS011;4243;49.296;11.348;2023-02-18T15:17:03;116.97;;;2.67;;
8411;SDS011;4243;49.296;11.348;2023-02-18T15:19:40;116.67;;;2.60;;
8411;SDS011;4243;49.296;11.348;2023-02-18T15:22:17;116.50;;;2.50;;
8411;SDS011;4243;49.296;11.348;2023-02-18T15:24:48;116.60;;;2.40;;
8411;SDS011;4243;49.296;11.348;2023-02-18T15:27:20;116.60;;;2.60;;
8411;SDS011;4243;49.296;11.348;2023-02-18T15:32:55;116.70;;;2.50;;
8411;SDS011;4243;49.296;11.348;2023-02-18T15:35:30;116.50;;;2.60;;
8411;SDS011;4243;49.296;11.348;2023-02-18T15:38:00;116.60;;;2.60;;
8411;SDS011;4243;49.296;11.348;2023-02-18T15:40:31;115.87;;;2.50;;
8411;SDS011;4243;49.296;11.348;2023-02-18T15:43:03;117.40;;;2.70;;
8411;SDS011;4243;49.296;11.348;2023-02-18T15:45:32;114.47;;;2.60;;
8411;SDS011;4243;49.296;11.348;2023-02-18T15:48:12;116.67;;;2.50;;
8411;SDS011;4243;49.296;11.348;2023-02-18T15:51:11;116.70;;;2.43;;
8411;SDS011;4243;49.296;11.348;2023-02-18T15:53:48;116.00;;;2.40;;
8411;SDS011;4243;49.296;11.348;2023-02-18T15:56:29;114.77;;;2.50;;
8411;SDS011;4243;49.296;11.348;2023-02-18T16:01:56;116.27;;;2.50;;
8411;SDS011;4243;49.296;11.348;2023-02-18T16:04:36;116.47;;;2.50;;
8411;SDS011;4243;49.296;11.348;2023-02-18T16:07:21;115.77;;;2.50;;
8411;SDS011;4243;49.296;11.348;2023-02-18T16:13:01;116.67;;;2.50;;
8411;SDS011;4243;49.296;11.348;2023-02-18T16:15:31;115.77;;;2.60;;
8411;SDS011;4243;49.296;11.348;2023-02-18T16:18:20;116.77;;;2.60;;
8411;SDS011;4243;49.296;11.348;2023-02-18T16:20:57;116.70;;;2.50;;
8411;SDS011;4243;49.296;11.348;2023-02-18T16:23:34;116.53;;;2.57;;
8411;SDS011;4243;49.296;11.348;2023-02-18T16:29:14;116.13;;;2.60;;
8411;SDS011;4243;49.296;11.348;2023-02-18T16:31:52;116.27;;;2.50;;
8411;SDS011;4243;49.296;11.348;2023-02-18T16:34:19;115.67;;;2.40;;
8411;SDS011;4243;49.296;11.348;2023-02-18T16:36:46;116.50;;;2.50;;
8411;SDS011;4243;49.296;11.348;2023-02-18T16:39:33;115.97;;;2.60;;
8411;SDS011;4243;49.296;11.348;2023-02-18T16:42:01;115.10;;;2.50;;
8411;SDS011;4243;49.296;11.348;2023-02-18T16:44:28;116.00;;;2.60;;
8411;SDS011;4243;49.296;11.348;2023-02-18T16:46:57;115.80;;;2.67;;
8411;SDS011;4243;49.296;11.348;2023-02-18T16:49:25;116.10;;;2.63;;
8411;SDS011;4243;49.296;11.348;2023-02-18T16:51:54;115.87;;;2.63;;
8411;SDS011;4243;49.296;11.348;2023-02-18T16:54:22;115.10;;;2.70;;
8411;SDS011;4243;49.296;11.348;2023-02-18T16:56:49;116.27;;;2.60;;
8411;SDS011;4243;49.296;11.348;2023-02-18T16:59:16;116.97;;;2.93;;
8411;SDS011;4243;49.296;11.348;2023-02-18T17:01:43;115.07;;;2.80;;
8411;SDS011;4243;49.296;11.348;2023-02-18T17:04:12;115.30;;;2.90;;
8411;SDS011;4243;49.296;11.348;2023-02-18T17:06:42;116.27;;;2.70;;